Terminal Aerodrome Forecast
Issued by NWS

Home | Current Version | Previous Version | Text Only | Print | Product List | Glossary On
Versions: 1 2 3 4 5 6 7 8 9 10 11 12 13 14 15 16 17 18 19 20 21 22 23 24 25 26 27 28
000
FTUS41 KPHI 231145
TAFMIV
TAF
KMIV 231145Z 2312/2412 05009KT P6SM OVC012
      TEMPO 2312/2315 3SM -RA BR BKN008
     FM231800 12007KT P6SM VCSH OVC012
     FM232200 14005KT 6SM BR OVC008
     FM240200 22005KT 4SM BR OVC008
     FM240900 26005KT 6SM BR BKN012=

USA.gov is the U.S. government's official web portal to all federal, state and local government web resources and services.